Time;durP1;ratioP1;P1;durP2;ratioP2;P2;SDS_P1;SDS_P2;PMS_P1;PMS_P2;Temp;Humidity;BMP_temperature;BMP_pressure;BME280_temperature;BME280_humidity;BME280_pressure;Samples;Min_cycle;Max_cycle;Signal;HPM_P1;HPM_P2
2022/08/15 00:01:42;;;;;;;4.03;2.88;;;22.20;11.60;;;;;;5088247;28;34473;-77
2022/08/15 00:04:08;;;;;;;3.60;2.67;;;22.10;11.70;;;;;;5120555;27;34340;-77
2022/08/15 00:06:41;;;;;;;3.08;2.78;;;22.10;12.40;;;;;;5071577;28;35926;-77
2022/08/15 00:09:13;;;;;;;4.13;2.50;;;22.00;13.20;;;;;;5106051;28;34170;-76
2022/08/15 00:11:43;;;;;;;4.85;2.72;;;22.00;13.40;;;;;;5071882;28;34322;-76
2022/08/15 00:14:16;;;;;;;5.35;2.97;;;22.00;12.90;;;;;;5088763;28;34075;-76
2022/08/15 00:16:43;;;;;;;2.83;2.50;;;22.00;13.30;;;;;;5087845;28;35600;-77
2022/08/15 00:19:15;;;;;;;3.78;2.72;;;22.00;12.70;;;;;;5105615;27;34431;-76
2022/08/15 00:21:46;;;;;;;6.45;2.80;;;21.90;12.90;;;;;;5052203;28;34397;-77
2022/08/15 00:24:15;;;;;;;5.20;3.00;;;22.00;12.70;;;;;;5088267;28;35568;-78
2022/08/15 00:26:44;;;;;;;2.67;2.28;;;22.00;12.40;;;;;;5086285;28;34588;-76
2022/08/15 00:29:12;;;;;;;4.13;2.40;;;22.00;12.10;;;;;;5084568;28;35873;-76
2022/08/15 00:31:39;;;;;;;3.78;2.42;;;22.00;11.60;;;;;;5082082;28;34446;-76
2022/08/15 00:34:05;;;;;;;4.70;2.58;;;22.10;11.50;;;;;;5085133;28;34402;-75
2022/08/15 00:36:31;;;;;;;2.97;2.40;;;22.10;11.20;;;;;;5083786;28;36036;-76
2022/08/15 00:38:59;;;;;;;4.03;2.25;;;22.10;11.00;;;;;;5083714;28;34477;-76
2022/08/15 00:44:18;;;;;;;3.13;2.20;;;22.20;11.00;;;;;;5082941;28;34186;-76
2022/08/15 00:46:49;;;;;;;2.70;2.50;;;22.20;12.60;;;;;;5083659;28;35788;-76
2022/08/15 00:49:17;;;;;;;2.78;2.53;;;22.20;11.00;;;;;;5083897;28;35568;-75
2022/08/15 00:51:56;;;;;;;5.30;2.47;;;22.20;10.50;;;;;;5089468;28;34631;-76
2022/08/15 00:54:36;;;;;;;3.65;2.10;;;22.20;11.40;;;;;;5073724;28;34196;-76
2022/08/15 00:57:07;;;;;;;3.95;2.55;;;22.20;13.20;;;;;;5065703;28;36895;-76
2022/08/15 00:59:37;;;;;;;4.97;2.42;;;22.20;11.10;;;;;;5083777;28;34168;-76
2022/08/15 01:02:07;;;;;;;5.05;2.45;;;22.20;11.20;;;;;;5066321;28;34472;-76
2022/08/15 01:04:34;;;;;;;2.88;2.20;;;22.20;10.80;;;;;;5068281;28;34389;-76
2022/08/15 01:07:00;;;;;;;3.05;1.88;;;22.10;10.40;;;;;;5085121;28;34956;-76
2022/08/15 01:09:28;;;;;;;3.97;2.50;;;22.10;10.20;;;;;;5083625;28;34273;-75
2022/08/15 01:12:13;;;;;;;2.80;2.03;;;22.20;10.40;;;;;;5084717;28;34336;-76
2022/08/15 01:14:44;;;;;;;2.38;1.98;;;22.20;13.30;;;;;;5083631;28;34276;-76
2022/08/15 01:17:11;;;;;;;3.58;2.13;;;22.20;11.10;;;;;;5063804;28;35163;-76
2022/08/15 01:19:42;;;;;;;2.67;2.45;;;22.10;10.70;;;;;;5073542;28;35594;-76
2022/08/15 01:22:27;;;;;;;2.22;1.92;;;22.10;11.40;;;;;;5078060;28;34349;-75
2022/08/15 01:25:03;;;;;;;2.45;1.90;;;22.10;12.90;;;;;;5066121;28;34191;-76
2022/08/15 01:27:48;;;;;;;2.38;2.17;;;22.10;12.10;;;;;;5083565;28;35449;-76
2022/08/15 01:30:19;;;;;;;3.03;1.85;;;22.10;11.40;;;;;;5084603;28;34404;-76
2022/08/15 01:32:46;;;;;;;4.20;2.00;;;22.00;10.70;;;;;;5083418;28;34535;-76
2022/08/15 01:35:13;;;;;;;3.22;2.25;;;22.00;10.50;;;;;;5082909;28;34230;-76
2022/08/15 01:37:41;;;;;;;1.98;1.83;;;22.00;10.50;;;;;;5083617;28;35131;-76
2022/08/15 01:40:19;;;;;;;2.22;1.85;;;22.00;11.00;;;;;;5084557;28;34089;-75
2022/08/15 01:42:48;;;;;;;3.03;1.85;;;21.90;12.50;;;;;;5068519;28;34170;-75
2022/08/15 01:45:19;;;;;;;2.28;1.90;;;21.90;11.40;;;;;;5083723;28;34144;-76
2022/08/15 01:48:08;;;;;;;2.88;1.88;;;21.80;10.90;;;;;;5082770;28;35536;-75
2022/08/15 01:50:38;;;;;;;2.42;1.85;;;21.80;11.10;;;;;;5053840;28;34436;-76
2022/08/15 01:53:13;;;;;;;2.22;1.75;;;21.80;10.80;;;;;;5080016;28;34367;-75
2022/08/15 01:55:59;;;;;;;3.00;1.80;;;21.80;11.60;;;;;;5051982;28;34366;-76
2022/08/15 01:58:26;;;;;;;2.10;1.67;;;21.70;14.50;;;;;;5058563;28;35505;-76
2022/08/15 02:01:06;;;;;;;4.32;2.25;;;21.70;10.80;;;;;;5082412;28;34271;-76
2022/08/15 02:03:34;;;;;;;2.90;1.73;;;21.70;13.30;;;;;;5066911;28;34202;-76
2022/08/15 02:06:03;;;;;;;6.88;2.50;;;21.70;11.10;;;;;;5083132;28;34205;-75
2022/08/15 02:08:30;;;;;;;3.95;1.90;;;21.60;11.20;;;;;;5083776;28;35812;-76
2022/08/15 02:10:56;;;;;;;4.47;1.90;;;21.60;10.80;;;;;;5082280;28;34046;-75
2022/08/15 02:13:23;;;;;;;2.92;2.00;;;21.60;10.80;;;;;;5069436;28;34250;-75
2022/08/15 02:15:50;;;;;;;2.42;1.85;;;21.60;10.80;;;;;;5082610;28;34289;-75
2022/08/15 02:18:16;;;;;;;4.32;2.20;;;21.60;10.70;;;;;;5082521;28;36317;-75
2022/08/15 02:20:42;;;;;;;7.22;2.05;;;21.60;10.70;;;;;;5082596;28;34326;-75
2022/08/15 02:23:08;;;;;;;2.40;1.92;;;21.60;10.80;;;;;;5062530;28;34109;-75
2022/08/15 02:25:35;;;;;;;1.95;1.85;;;21.60;10.70;;;;;;5082795;28;34068;-76
2022/08/15 02:28:02;;;;;;;2.58;2.00;;;21.60;10.90;;;;;;5093737;28;34081;-75
2022/08/15 02:30:31;;;;;;;2.45;2.00;;;21.60;10.80;;;;;;5105050;27;34142;-75
2022/08/15 02:32:58;;;;;;;2.60;1.90;;;21.60;11.20;;;;;;5090383;28;34583;-75
2022/08/15 02:35:24;;;;;;;2.95;2.05;;;21.60;10.90;;;;;;5086857;28;34156;-75
2022/08/15 02:37:51;;;;;;;3.25;2.20;;;21.60;11.00;;;;;;5086140;28;35992;-76
2022/08/15 02:40:17;;;;;;;2.20;2.00;;;21.60;11.00;;;;;;5098492;27;34257;-75
2022/08/15 02:42:45;;;;;;;2.28;2.08;;;21.60;11.20;;;;;;5106632;27;34131;-75
2022/08/15 02:45:12;;;;;;;2.13;1.85;;;21.60;11.40;;;;;;5085710;28;34453;-75
2022/08/15 02:47:43;;;;;;;2.15;2.00;;;21.60;11.50;;;;;;5086117;28;34357;-76
2022/08/15 02:50:13;;;;;;;3.08;2.10;;;21.50;11.70;;;;;;5069879;28;34132;-76
2022/08/15 02:52:48;;;;;;;3.67;2.05;;;21.50;11.80;;;;;;5086937;28;34613;-76
2022/08/15 02:55:15;;;;;;;4.57;1.98;;;21.50;13.40;;;;;;5102799;27;34470;-75
2022/08/15 02:57:40;;;;;;;2.35;2.00;;;21.40;12.00;;;;;;5103967;28;35285;-75
2022/08/15 03:00:16;;;;;;;2.55;2.25;;;21.40;12.20;;;;;;5069260;28;34169;-75
2022/08/15 03:02:56;;;;;;;3.78;2.15;;;21.40;13.70;;;;;;5068782;28;34574;-76
2022/08/15 03:05:23;;;;;;;5.03;2.78;;;21.40;14.50;;;;;;5112820;27;34050;-76
2022/08/15 03:07:50;;;;;;;3.88;2.20;;;21.30;12.90;;;;;;5102391;28;34408;-76
2022/08/15 03:10:16;;;;;;;2.80;2.28;;;21.30;13.00;;;;;;5088536;28;34321;-76
2022/08/15 03:13:00;;;;;;;4.53;2.47;;;21.20;13.20;;;;;;5079713;28;34406;-76
2022/08/15 03:15:31;;;;;;;3.90;2.20;;;21.20;18.10;;;;;;5103032;28;34657;-76
2022/08/15 03:17:59;;;;;;;4.90;2.60;;;21.10;14.00;;;;;;5086156;28;35642;-76
2022/08/15 03:20:26;;;;;;;4.63;2.60;;;21.00;14.00;;;;;;5095970;28;34722;-76
2022/08/15 03:22:53;;;;;;;4.57;2.65;;;21.00;14.50;;;;;;5103757;28;34067;-77
2022/08/15 03:25:23;;;;;;;4.63;2.92;;;20.90;14.80;;;;;;5104817;28;34225;-78
2022/08/15 03:27:49;;;;;;;3.38;2.50;;;20.90;15.20;;;;;;5074611;28;36758;-77
2022/08/15 03:30:16;;;;;;;4.63;2.25;;;20.90;15.40;;;;;;5084322;28;34123;-77
2022/08/15 03:32:49;;;;;;;5.78;3.00;;;20.80;15.80;;;;;;5084198;28;34289;-77
2022/08/15 03:35:17;;;;;;;4.60;2.58;;;20.70;16.40;;;;;;5083006;28;34455;-77
2022/08/15 03:37:43;;;;;;;3.20;2.60;;;20.70;16.30;;;;;;5062208;28;35241;-76
2022/08/15 03:40:10;;;;;;;3.97;2.55;;;20.60;16.60;;;;;;5064465;28;34432;-77
2022/08/15 03:42:36;;;;;;;4.13;2.67;;;20.60;17.20;;;;;;5065348;28;34068;-77
2022/08/15 03:45:11;;;;;;;7.45;2.90;;;20.50;17.20;;;;;;5083383;28;34073;-77
2022/08/15 03:47:37;;;;;;;4.75;3.10;;;20.50;19.70;;;;;;5073845;28;36584;-77
2022/08/15 03:50:05;;;;;;;5.22;3.08;;;20.50;17.60;;;;;;5066030;28;34153;-78
2022/08/15 03:52:32;;;;;;;4.22;2.88;;;20.50;18.00;;;;;;5062879;28;34025;-77
2022/08/15 03:55:05;;;;;;;4.40;2.67;;;20.50;17.90;;;;;;5058779;28;34104;-79
2022/08/15 03:57:31;;;;;;;5.10;2.95;;;20.50;20.50;;;;;;5053428;28;35450;-79
2022/08/15 03:59:57;;;;;;;6.85;2.75;;;20.40;18.70;;;;;;5085696;28;34143;-77
2022/08/15 04:02:25;;;;;;;4.90;2.83;;;20.40;18.90;;;;;;5069132;28;34039;-78
2022/08/15 04:04:51;;;;;;;4.05;2.97;;;20.30;19.40;;;;;;5086271;28;34503;-77
2022/08/15 04:07:17;;;;;;;3.88;2.58;;;20.30;19.20;;;;;;5085522;28;36050;-78
2022/08/15 04:09:43;;;;;;;3.75;2.95;;;20.30;19.40;;;;;;5086047;28;34041;-78
2022/08/15 04:12:09;;;;;;;2.72;2.38;;;20.30;19.40;;;;;;5069697;28;34086;-79
2022/08/15 04:14:35;;;;;;;4.78;2.80;;;20.20;19.50;;;;;;5088132;28;34194;-78
2022/08/15 04:17:03;;;;;;;6.55;2.90;;;20.20;19.80;;;;;;5084978;28;35890;-78
2022/08/15 04:19:30;;;;;;;3.22;2.83;;;20.20;19.80;;;;;;5086775;28;34356;-78
2022/08/15 04:22:03;;;;;;;5.32;2.55;;;20.10;20.00;;;;;;5087054;28;34096;-78
2022/08/15 04:24:29;;;;;;;3.10;2.72;;;20.10;22.20;;;;;;5085433;28;34438;-77
2022/08/15 04:26:55;;;;;;;4.78;2.90;;;20.10;20.60;;;;;;5084578;28;35913;-78
2022/08/15 04:29:21;;;;;;;4.70;3.13;;;20.00;20.70;;;;;;5088985;28;34348;-76
2022/08/15 04:31:47;;;;;;;4.93;2.50;;;20.00;20.50;;;;;;5105811;28;34212;-78
2022/08/15 04:34:14;;;;;;;4.32;3.13;;;20.10;20.70;;;;;;5068822;28;34120;-76
2022/08/15 04:36:40;;;;;;;6.75;2.97;;;20.10;20.80;;;;;;5105408;27;34206;-76
2022/08/15 04:39:06;;;;;;;4.07;3.35;;;20.10;21.10;;;;;;5106851;28;34107;-77
2022/08/15 04:41:32;;;;;;;3.88;3.00;;;20.00;21.00;;;;;;5068900;28;34278;-76
2022/08/15 04:43:58;;;;;;;5.85;2.80;;;20.00;21.20;;;;;;5067911;28;34322;-76
2022/08/15 04:46:24;;;;;;;4.82;2.80;;;20.00;21.40;;;;;;5082738;28;35702;-76
2022/08/15 04:48:50;;;;;;;4.50;2.85;;;20.00;21.40;;;;;;5071961;28;34216;-77
2022/08/15 04:51:16;;;;;;;3.88;2.60;;;20.00;21.40;;;;;;5092610;28;34324;-77
2022/08/15 04:53:44;;;;;;;4.53;3.50;;;20.00;21.30;;;;;;5088890;28;34115;-77
2022/08/15 04:56:10;;;;;;;3.83;2.95;;;20.10;21.50;;;;;;5076834;27;36106;-77
2022/08/15 04:58:36;;;;;;;3.92;3.10;;;20.10;21.50;;;;;;5089453;28;34134;-77
2022/08/15 05:01:07;;;;;;;4.85;3.20;;;20.10;21.70;;;;;;5087744;28;34563;-78
2022/08/15 05:03:33;;;;;;;6.60;3.03;;;20.10;22.60;;;;;;5088046;28;34126;-77
2022/08/15 05:06:03;;;;;;;5.57;3.17;;;20.10;22.20;;;;;;5088679;28;35515;-77
2022/08/15 05:08:31;;;;;;;4.22;3.15;;;20.10;22.80;;;;;;5087428;28;34299;-76
2022/08/15 05:11:14;;;;;;;5.25;3.28;;;20.00;22.80;;;;;;5077415;28;34299;-76
2022/08/15 05:13:43;;;;;;;3.95;3.15;;;20.00;22.70;;;;;;5093372;28;34286;-77
2022/08/15 05:16:10;;;;;;;5.18;3.13;;;20.10;22.60;;;;;;5064585;28;35640;-76
2022/08/15 05:18:38;;;;;;;4.82;2.97;;;20.10;22.60;;;;;;5089854;28;34452;-76
2022/08/15 05:21:06;;;;;;;3.55;3.17;;;20.10;22.70;;;;;;5067502;28;34305;-77
2022/08/15 05:23:32;;;;;;;4.53;3.20;;;20.10;22.70;;;;;;5067206;28;34337;-77
2022/08/15 05:26:00;;;;;;;4.35;2.90;;;20.10;22.60;;;;;;5109130;27;34199;-77
2022/08/15 05:28:27;;;;;;;4.53;2.80;;;20.10;22.60;;;;;;5094139;28;34519;-76
2022/08/15 05:30:54;;;;;;;4.03;2.72;;;20.10;22.80;;;;;;5090064;28;34224;-77
2022/08/15 05:33:25;;;;;;;6.57;3.15;;;20.10;22.90;;;;;;5088864;28;34166;-77
2022/08/15 05:35:55;;;;;;;3.00;2.53;;;20.10;23.40;;;;;;5070310;28;36643;-76
2022/08/15 05:38:29;;;;;;;5.13;2.58;;;20.10;23.50;;;;;;5096569;27;34279;-76
2022/08/15 05:41:22;;;;;;;4.97;3.15;;;20.10;23.20;;;;;;5106767;28;34345;-77
2022/08/15 05:44:02;;;;;;;6.72;2.88;;;20.20;26.10;;;;;;5106635;28;34228;-76
2022/08/15 05:46:46;;;;;;;3.35;2.55;;;20.20;25.70;;;;;;5072147;28;35606;-77
2022/08/15 05:49:41;;;;;;;5.68;2.95;;;20.20;25.60;;;;;;5071835;28;34504;-77
2022/08/15 05:52:25;;;;;;;2.58;2.38;;;20.20;27.20;;;;;;5083048;28;34214;-77
2022/08/15 05:55:05;;;;;;;3.90;2.97;;;20.30;26.00;;;;;;5076996;27;34522;-77
2022/08/15 05:57:47;;;;;;;3.40;2.83;;;20.20;24.40;;;;;;5095735;28;34318;-77
2022/08/15 06:00:15;;;;;;;3.00;2.38;;;20.30;25.10;;;;;;5103474;27;34311;-76
2022/08/15 06:02:48;;;;;;;3.15;2.38;;;20.30;23.20;;;;;;5087864;28;34445;-77
2022/08/15 06:05:24;;;;;;;5.40;2.55;;;20.30;24.10;;;;;;5086586;28;34728;-77
2022/08/15 06:07:50;;;;;;;3.45;2.70;;;20.30;23.80;;;;;;5106383;27;34885;-77
2022/08/15 06:10:29;;;;;;;3.33;2.42;;;20.30;23.40;;;;;;5087636;28;34138;-77
2022/08/15 06:13:11;;;;;;;4.80;2.25;;;20.40;24.60;;;;;;5104996;28;34132;-77
2022/08/15 06:15:54;;;;;;;4.22;2.70;;;20.40;26.50;;;;;;5054445;28;34092;-77
2022/08/15 06:18:22;;;;;;;4.22;2.70;;;20.40;25.30;;;;;;5101432;28;34549;-78
2022/08/15 06:21:07;;;;;;;2.70;2.33;;;20.40;23.80;;;;;;5074429;28;34006;-77
2022/08/15 06:23:58;;;;;;;3.55;2.30;;;20.40;26.50;;;;;;5071074;28;34013;-78
2022/08/15 06:26:45;;;;;;;2.58;2.22;;;20.40;25.70;;;;;;5097856;27;34285;-77
2022/08/15 06:29:28;;;;;;;2.75;2.20;;;20.40;26.50;;;;;;5084731;28;35550;-77
2022/08/15 06:32:02;;;;;;;4.90;2.60;;;20.40;25.80;;;;;;5087721;28;34265;-77
2022/08/15 06:34:44;;;;;;;2.63;2.15;;;20.40;24.20;;;;;;5082080;28;33670;-78
2022/08/15 06:37:44;;;;;;;3.20;2.60;;;20.40;25.40;;;;;;5085061;28;34319;-77
2022/08/15 06:40:23;;;;;;;5.85;2.33;;;20.40;26.30;;;;;;5077552;28;35699;-77
2022/08/15 06:49:22;;;;;;;5.13;2.22;;;20.30;27.30;;;;;;5093192;27;34009;-78
2022/08/15 06:51:28;;;;;;;4.75;2.55;;;20.20;26.80;;;;;;5074480;28;34310;-77
2022/08/15 06:53:57;;;;;;;5.53;2.53;;;20.20;23.90;;;;;;5068322;28;34320;-77
2022/08/15 06:56:39;;;;;;;3.20;2.50;;;20.10;24.30;;;;;;5085034;28;34089;-76
2022/08/15 06:59:29;;;;;;;2.45;2.25;;;20.10;26.90;;;;;;5066369;28;34568;-76
2022/08/15 07:02:19;;;;;;;4.15;2.08;;;20.10;26.50;;;;;;5066156;28;35698;-77
2022/08/15 07:05:10;;;;;;;4.72;2.40;;;20.10;26.40;;;;;;5072054;28;34065;-76
2022/08/15 07:07:48;;;;;;;2.53;2.33;;;20.20;28.30;;;;;;5079881;28;34176;-76
2022/08/15 07:10:32;;;;;;;3.47;1.92;;;20.20;26.60;;;;;;5098711;28;34132;-76
2022/08/15 07:13:11;;;;;;;4.63;2.47;;;20.20;24.70;;;;;;5069954;28;35692;-76
2022/08/15 07:15:57;;;;;;;2.95;2.60;;;20.20;25.40;;;;;;5074046;28;34159;-75
2022/08/15 07:18:34;;;;;;;2.83;2.55;;;20.30;27.30;;;;;;5080196;28;34124;-76
2022/08/15 07:21:06;;;;;;;2.50;2.30;;;20.40;25.10;;;;;;5103551;28;34471;-76
2022/08/15 07:23:35;;;;;;;6.40;2.20;;;20.40;24.60;;;;;;5082324;28;34408;-76
2022/08/15 07:26:08;;;;;;;2.25;2.05;;;20.50;24.50;;;;;;5086137;28;34108;-76
2022/08/15 07:28:37;;;;;;;2.75;2.50;;;20.50;25.60;;;;;;5087599;28;33688;-76
2022/08/15 07:31:26;;;;;;;2.92;2.53;;;20.60;24.40;;;;;;5077047;28;34445;-77
2022/08/15 07:33:56;;;;;;;3.72;2.45;;;20.60;25.70;;;;;;5089943;28;36517;-77
2022/08/15 07:36:28;;;;;;;3.80;2.47;;;20.70;24.50;;;;;;5090567;28;34138;-77
2022/08/15 07:38:57;;;;;;;3.80;2.50;;;20.80;24.90;;;;;;5105681;27;34162;-77
2022/08/15 07:41:32;;;;;;;4.95;2.67;;;20.80;24.70;;;;;;5090392;28;34314;-76
2022/08/15 07:44:23;;;;;;;4.63;2.55;;;20.80;25.40;;;;;;5074437;28;35413;-76
2022/08/15 07:50:01;;;;;;;2.65;2.40;;;20.90;24.40;;;;;;5097096;28;55897;-78
2022/08/15 07:52:28;;;;;;;2.42;2.22;;;21.10;29.20;;;;;;5046864;28;35408;-77
2022/08/15 07:54:56;;;;;;;2.97;2.40;;;21.10;24.30;;;;;;5078202;28;35090;-77
2022/08/15 07:57:29;;;;;;;3.63;2.88;;;21.20;24.30;;;;;;5078242;28;34750;-76
2022/08/15 08:00:18;;;;;;;2.70;2.50;;;21.30;25.60;;;;;;5040294;28;34134;-77
2022/08/15 08:02:54;;;;;;;2.63;2.38;;;21.40;27.10;;;;;;5077760;28;34471;-77
2022/08/15 08:05:27;;;;;;;3.92;2.83;;;21.50;25.70;;;;;;5081380;28;34470;-76
2022/08/15 08:07:54;;;;;;;5.32;2.97;;;21.60;24.30;;;;;;5080769;28;34267;-77
2022/08/15 08:10:34;;;;;;;4.10;2.30;;;21.70;24.00;;;;;;5047599;28;34381;-78
2022/08/15 08:13:35;;;;;;;5.68;2.53;;;21.90;25.00;;;;;;5080878;28;34395;-78
2022/08/15 08:16:28;;;;;;;4.18;2.35;;;22.00;26.80;;;;;;5062435;28;35694;-78
2022/08/15 08:19:13;;;;;;;4.00;2.67;;;22.10;25.40;;;;;;5046352;28;34298;-79
2022/08/15 08:21:51;;;;;;;6.13;2.95;;;22.20;25.20;;;;;;5043666;28;34429;-80
2022/08/15 08:24:47;;;;;;;4.03;3.20;;;22.20;24.20;;;;;;5107792;27;34024;-78
2022/08/15 08:27:44;;;;;;;2.80;2.60;;;22.30;26.50;;;;;;5087900;28;36283;-78
2022/08/15 08:30:17;;;;;;;4.72;3.05;;;22.30;25.90;;;;;;5080575;28;34208;-78
2022/08/15 08:33:01;;;;;;;3.50;2.67;;;22.20;23.30;;;;;;5104117;28;34300;-77
2022/08/15 08:35:45;;;;;;;3.03;2.72;;;22.20;25.90;;;;;;5107968;28;34358;-79
2022/08/15 08:38:27;;;;;;;4.53;2.80;;;22.20;24.90;;;;;;5088718;28;34192;-78
2022/08/15 08:41:29;;;;;;;3.35;3.05;;;22.10;25.10;;;;;;5089163;28;34393;-78
2022/08/15 08:44:25;;;;;;;3.78;3.15;;;22.00;26.10;;;;;;5089262;28;34234;-78
2022/08/15 08:47:16;;;;;;;4.38;2.88;;;21.90;26.00;;;;;;5092314;28;34206;-78
2022/08/15 08:50:06;;;;;;;4.20;2.80;;;21.90;27.40;;;;;;5089791;28;35685;-77
2022/08/15 08:52:54;;;;;;;3.53;3.00;;;21.90;25.80;;;;;;5074801;28;34162;-77
2022/08/15 08:55:29;;;;;;;5.63;3.20;;;21.90;25.90;;;;;;5093331;28;34511;-78
2022/08/15 08:58:03;;;;;;;3.13;2.83;;;21.90;24.30;;;;;;5087398;28;34090;-78
2022/08/15 09:00:45;;;;;;;5.63;2.88;;;21.90;24.70;;;;;;5093205;28;35886;-77
2022/08/15 09:03:29;;;;;;;4.05;2.63;;;22.00;26.60;;;;;;5084102;28;34075;-77
2022/08/15 09:06:09;;;;;;;3.95;2.90;;;22.00;24.50;;;;;;5106690;27;34496;-78
2022/08/15 09:08:41;;;;;;;5.57;3.30;;;22.10;25.40;;;;;;5082883;28;34187;-77
2022/08/15 09:11:16;;;;;;;3.40;2.80;;;22.10;24.70;;;;;;5088500;28;34519;-77
2022/08/15 09:13:44;;;;;;;3.83;2.92;;;22.20;24.80;;;;;;5088722;28;34186;-77
2022/08/15 09:16:25;;;;;;;4.72;2.42;;;22.30;24.10;;;;;;5105471;28;34150;-77
2022/08/15 09:19:11;;;;;;;3.65;2.90;;;22.40;25.10;;;;;;5086568;28;34288;-77
2022/08/15 09:21:41;;;;;;;2.78;2.40;;;22.60;25.70;;;;;;5079222;28;35581;-77
2022/08/15 09:24:07;;;;;;;3.97;3.17;;;22.60;23.70;;;;;;5088218;28;34448;-78
2022/08/15 09:26:50;;;;;;;3.95;2.90;;;22.70;23.50;;;;;;5088057;28;34250;-77
2022/08/15 09:29:28;;;;;;;4.65;2.63;;;22.80;24.70;;;;;;5107546;28;34039;-77
2022/08/15 09:32:21;;;;;;;6.18;3.10;;;22.90;24.90;;;;;;5089873;28;36381;-78
2022/08/15 09:35:12;;;;;;;3.60;2.95;;;23.00;24.30;;;;;;5067981;28;34140;-77
2022/08/15 09:38:09;;;;;;;4.22;3.10;;;23.00;25.30;;;;;;5067197;28;34413;-77
2022/08/15 09:41:02;;;;;;;6.07;3.05;;;23.10;24.60;;;;;;5074656;28;34513;-77
2022/08/15 09:44:02;;;;;;;3.55;2.72;;;23.20;25.00;;;;;;5064884;28;36235;-78
2022/08/15 09:46:54;;;;;;;4.13;2.85;;;23.30;25.40;;;;;;5089899;28;34065;-78
2022/08/15 09:49:51;;;;;;;3.20;2.90;;;23.60;25.70;;;;;;5085156;28;34107;-78
2022/08/15 09:52:35;;;;;;;4.57;3.10;;;23.80;24.70;;;;;;5085908;28;34418;-77
2022/08/15 09:55:17;;;;;;;4.68;3.25;;;24.00;23.30;;;;;;5087689;28;35636;-77
2022/08/15 09:57:52;;;;;;;4.75;3.25;;;24.20;21.80;;;;;;5088339;28;34221;-78
2022/08/15 10:00:27;;;;;;;4.05;3.15;;;24.40;21.10;;;;;;5105833;28;34287;-77
2022/08/15 10:03:02;;;;;;;3.92;3.10;;;24.50;21.20;;;;;;5067630;28;34152;-78
2022/08/15 10:05:45;;;;;;;5.60;3.03;;;24.50;21.00;;;;;;5104128;27;34456;-77
2022/08/15 10:08:14;;;;;;;3.78;2.80;;;24.50;22.60;;;;;;5085883;28;34412;-77
2022/08/15 10:11:11;;;;;;;4.72;2.72;;;24.30;20.20;;;;;;5088829;28;34369;-77
2022/08/15 10:13:46;;;;;;;4.35;3.03;;;24.10;20.00;;;;;;5086842;28;34637;-77
2022/08/15 10:16:43;;;;;;;3.10;2.80;;;24.10;21.60;;;;;;5088731;28;36383;-77
2022/08/15 10:19:29;;;;;;;5.22;3.03;;;24.00;22.40;;;;;;5084388;28;34279;-77
2022/08/15 10:21:55;;;;;;;3.30;2.88;;;24.10;22.70;;;;;;5083623;28;34208;-77
2022/08/15 10:24:25;;;;;;;3.20;2.90;;;24.20;20.40;;;;;;5042510;28;34373;-78
2022/08/15 10:27:15;;;;;;;4.28;3.53;;;24.50;20.50;;;;;;5092221;28;35720;-77
2022/08/15 10:29:47;;;;;;;3.28;2.97;;;24.90;21.00;;;;;;5085739;27;34240;-77
2022/08/15 10:32:40;;;;;;;4.38;2.55;;;25.20;19.30;;;;;;5070871;28;34128;-77
2022/08/15 10:35:18;;;;;;;4.68;2.90;;;25.20;19.60;;;;;;5088282;28;34222;-77
2022/08/15 10:37:58;;;;;;;5.38;2.80;;;25.20;18.60;;;;;;5085856;28;35466;-77
2022/08/15 10:40:59;;;;;;;4.35;3.00;;;25.10;18.40;;;;;;5086137;28;34230;-78
2022/08/15 10:43:43;;;;;;;6.18;3.55;;;25.00;18.00;;;;;;5073277;28;34305;-77
2022/08/15 10:46:23;;;;;;;4.85;3.33;;;24.60;18.90;;;;;;5120744;27;34647;-77
2022/08/15 10:49:12;;;;;;;7.65;3.40;;;24.30;20.20;;;;;;5084949;28;35914;-77
2022/08/15 10:52:08;;;;;;;4.75;3.10;;;23.80;19.40;;;;;;5088233;28;34496;-78
2022/08/15 10:55:07;;;;;;;4.25;3.75;;;23.50;21.90;;;;;;5068279;28;34039;-77
2022/08/15 10:57:49;;;;;;;5.78;3.95;;;23.20;21.50;;;;;;5068152;28;34169;-77
2022/08/15 11:00:43;;;;;;;4.25;3.92;;;23.00;22.80;;;;;;5071803;28;36021;-79
2022/08/15 11:03:26;;;;;;;5.30;3.60;;;22.80;21.80;;;;;;5077210;28;34200;-78
2022/08/15 11:05:56;;;;;;;5.03;4.13;;;22.60;21.60;;;;;;5041946;28;35244;-77
2022/08/15 11:08:23;;;;;;;4.57;4.07;;;22.50;21.40;;;;;;5088174;28;33893;-77
2022/08/15 11:10:49;;;;;;;5.15;3.70;;;22.40;20.90;;;;;;5084980;28;36362;-77
2022/08/15 11:13:31;;;;;;;6.28;3.90;;;22.40;21.20;;;;;;5065731;28;34651;-77
2022/08/15 11:16:07;;;;;;;5.38;3.90;;;22.40;22.40;;;;;;5068309;28;34192;-77
2022/08/15 11:18:38;;;;;;;7.93;4.40;;;22.50;21.70;;;;;;5079812;28;34171;-77
2022/08/15 11:21:39;;;;;;;4.60;4.07;;;22.50;21.70;;;;;;5073570;28;35915;-76
2022/08/15 11:24:09;;;;;;;5.55;4.22;;;22.50;25.30;;;;;;5051549;28;34318;-77
2022/08/15 11:26:42;;;;;;;5.13;4.63;;;22.60;21.60;;;;;;5067804;28;34316;-77
2022/08/15 11:29:22;;;;;;;5.85;4.40;;;22.90;22.20;;;;;;5074864;28;34108;-77
2022/08/15 11:31:53;;;;;;;5.05;4.10;;;23.10;21.70;;;;;;5089702;28;34442;-77
2022/08/15 11:34:33;;;;;;;8.68;4.72;;;23.30;21.90;;;;;;5073910;28;34245;-77
2022/08/15 11:37:18;;;;;;;5.80;4.30;;;23.40;21.10;;;;;;5031083;28;34199;-77
2022/08/15 11:40:03;;;;;;;6.00;4.53;;;23.70;23.20;;;;;;5029684;28;34263;-77
2022/08/15 11:42:40;;;;;;;5.22;4.72;;;23.80;20.00;;;;;;5054532;28;36659;-77
2022/08/15 11:45:13;;;;;;;5.45;4.15;;;24.00;20.00;;;;;;5069994;28;34220;-78
2022/08/15 11:47:52;;;;;;;5.75;4.35;;;24.20;20.00;;;;;;5053262;28;34413;-78
2022/08/15 11:50:27;;;;;;;6.22;4.65;;;24.40;19.60;;;;;;5056107;27;34520;-78
2022/08/15 11:52:57;;;;;;;6.10;4.45;;;24.40;20.00;;;;;;5090493;27;35800;-77
2022/08/15 11:55:44;;;;;;;7.53;4.38;;;24.40;19.40;;;;;;5100567;28;34282;-78
2022/08/15 11:58:30;;;;;;;7.70;4.95;;;24.30;22.10;;;;;;5090657;28;34191;-79
2022/08/15 12:00:58;;;;;;;6.55;5.40;;;24.30;23.20;;;;;;5109120;27;34265;-77
2022/08/15 12:03:31;;;;;;;6.63;4.75;;;24.30;20.10;;;;;;5073694;28;35431;-77
2022/08/15 12:06:14;;;;;;;6.07;5.10;;;24.30;20.90;;;;;;5089463;28;34026;-76
2022/08/15 12:08:43;;;;;;;6.65;5.18;;;24.30;20.80;;;;;;5074920;28;34314;-77
2022/08/15 12:11:24;;;;;;;7.72;5.35;;;24.20;20.60;;;;;;5114720;27;34475;-77
2022/08/15 12:14:00;;;;;;;6.00;5.40;;;24.20;22.20;;;;;;5109985;27;35482;-78
2022/08/15 12:16:31;;;;;;;5.70;5.15;;;24.10;22.90;;;;;;5110603;27;34040;-77
2022/08/15 12:19:19;;;;;;;6.53;5.05;;;24.10;21.70;;;;;;5093437;28;34267;-78
2022/08/15 12:21:47;;;;;;;6.60;5.20;;;24.10;22.70;;;;;;5076731;28;34421;-78
2022/08/15 12:24:22;;;;;;;6.25;5.63;;;24.00;21.70;;;;;;5089637;28;36634;-77
2022/08/15 12:26:50;;;;;;;5.47;4.85;;;24.00;23.30;;;;;;5088901;28;34109;-78
2022/08/15 12:29:20;;;;;;;7.88;5.15;;;24.00;21.40;;;;;;5089922;28;34140;-75
2022/08/15 12:31:48;;;;;;;7.03;5.65;;;24.00;21.40;;;;;;5105140;27;34199;-76
2022/08/15 12:34:19;;;;;;;8.00;5.40;;;24.00;21.50;;;;;;5081423;28;35675;-77
2022/08/15 12:36:46;;;;;;;7.40;5.32;;;24.10;21.80;;;;;;5109279;28;34122;-79
2022/08/15 12:39:14;;;;;;;6.18;5.57;;;24.20;21.60;;;;;;5090143;28;34095;-76
2022/08/15 12:41:43;;;;;;;7.25;5.78;;;24.20;21.60;;;;;;5087654;28;34071;-77
2022/08/15 12:44:24;;;;;;;8.02;5.85;;;24.30;21.70;;;;;;5079926;28;35962;-78
2022/08/15 12:46:52;;;;;;;7.60;5.50;;;24.50;22.30;;;;;;5092819;28;34228;-78
2022/08/15 12:49:18;;;;;;;7.35;5.20;;;24.60;21.00;;;;;;5106502;28;34426;-78
2022/08/15 12:51:47;;;;;;;5.90;4.78;;;24.60;20.70;;;;;;5076168;28;34160;-78
2022/08/15 12:54:13;;;;;;;5.07;4.38;;;24.70;20.90;;;;;;5091546;28;36620;-77
2022/08/15 12:56:43;;;;;;;4.68;4.28;;;24.80;20.30;;;;;;5104179;28;34396;-77
2022/08/15 12:59:11;;;;;;;5.45;4.50;;;25.00;20.20;;;;;;5089152;28;34345;-76
2022/08/15 13:01:39;;;;;;;5.72;4.43;;;25.10;20.00;;;;;;5088893;28;34342;-76
2022/08/15 13:04:10;;;;;;;5.05;4.07;;;25.30;19.60;;;;;;5106060;27;35840;-76
2022/08/15 13:06:46;;;;;;;4.78;3.88;;;25.40;19.20;;;;;;5101200;28;34444;-75
2022/08/15 13:09:15;;;;;;;5.25;3.42;;;25.40;17.90;;;;;;5107068;28;34056;-77
2022/08/15 13:11:43;;;;;;;4.85;3.72;;;25.50;18.80;;;;;;5098342;28;34501;-75
2022/08/15 13:14:11;;;;;;;5.30;3.63;;;25.70;18.00;;;;;;5097142;28;36165;-76
2022/08/15 13:16:37;;;;;;;4.85;3.72;;;25.90;17.70;;;;;;5110521;27;34386;-76
2022/08/15 13:19:09;;;;;;;4.45;4.05;;;26.20;17.40;;;;;;5106670;28;34091;-76
2022/08/15 13:24:19;;;;;;;6.35;3.55;;;26.70;17.30;;;;;;5105563;28;34396;-77
2022/08/15 13:26:55;;;;;;;4.75;3.50;;;27.00;17.10;;;;;;5109818;27;34375;-76
2022/08/15 13:29:21;;;;;;;5.40;3.28;;;27.10;16.30;;;;;;5085209;28;34163;-76
2022/08/15 13:31:48;;;;;;;3.55;3.10;;;27.40;15.90;;;;;;5106183;27;34349;-77
2022/08/15 13:34:16;;;;;;;5.80;3.33;;;27.50;15.50;;;;;;5087787;28;35760;-76
2022/08/15 13:36:42;;;;;;;4.38;3.50;;;27.70;15.40;;;;;;5084868;28;34408;-76
2022/08/15 13:39:16;;;;;;;4.75;3.35;;;27.80;15.00;;;;;;5105858;28;34289;-76
2022/08/15 13:41:42;;;;;;;6.25;3.42;;;27.90;14.60;;;;;;5087246;28;34122;-76